Time;durP1;ratioP1;P1;durP2;ratioP2;P2;SDS_P1;SDS_P2;PMS_P1;PMS_P2;Temp;Humidity;BMP_temperature;BMP_pressure;BME280_temperature;BME280_humidity;BME280_pressure;Samples;Min_cycle;Max_cycle;Signal;HPM_P1;HPM_P2
2021/09/16 07:15:12;;;;;;;13.10;8.05;;;;;;;22.41;60.73;100276.41;1375411;90;21633;-93
2021/09/16 07:17:39;;;;;;;11.60;8.03;;;;;;;22.67;60.44;100278.39;1385344;88;21355;-92
2021/09/16 07:20:07;;;;;;;14.85;7.08;;;;;;;22.76;59.59;100277.03;1382825;89;21250;-94
2021/09/16 07:22:34;;;;;;;13.88;6.87;;;;;;;22.79;58.52;100273.86;1381846;89;21397;-95
2021/09/16 07:25:02;;;;;;;14.03;7.25;;;;;;;22.85;58.01;100271.59;1361773;91;21220;-95
2021/09/16 07:27:30;;;;;;;13.22;7.42;;;;;;;22.98;58.09;100272.73;1385186;89;22277;-96
2021/09/16 07:30:00;;;;;;;12.73;6.28;;;;;;;23.04;57.47;100272.86;1381400;89;21383;-95
2021/09/16 07:32:27;;;;;;;21.45;7.90;;;;;;;23.14;57.04;100276.62;1381177;89;21309;-85
2021/09/16 07:34:55;;;;;;;17.52;6.67;;;;;;;23.26;56.44;100279.33;1355674;91;22390;-86
2021/09/16 07:37:22;;;;;;;12.82;6.50;;;;;;;23.38;56.52;100280.14;1381414;89;21445;-85
2021/09/16 07:39:50;;;;;;;12.63;6.70;;;;;;;23.51;56.12;100280.98;1381348;89;21309;-85
2021/09/16 07:42:17;;;;;;;16.57;7.10;;;;;;;23.64;55.47;100278.82;1384348;89;22096;-84
2021/09/16 07:44:44;;;;;;;15.65;6.50;;;;;;;23.74;55.10;100278.27;1381120;89;22837;-84
2021/09/16 07:47:11;;;;;;;14.78;6.85;;;;;;;23.92;54.87;100274.58;1384564;89;21452;-84
2021/09/16 07:49:39;;;;;;;15.28;6.53;;;;;;;24.02;54.73;100275.30;1381000;89;21250;-85
2021/09/16 07:52:07;;;;;;;11.28;6.83;;;;;;;24.14;53.83;100277.45;1384444;87;21267;-84
2021/09/16 07:54:35;;;;;;;11.85;6.70;;;;;;;24.16;52.40;100274.50;1380848;89;21258;-85
2021/09/16 07:57:02;;;;;;;9.03;5.37;;;;;;;24.22;52.67;100269.47;1351991;90;21332;-84
2021/09/16 07:59:36;;;;;;;12.58;5.87;;;;;;;24.39;52.61;100269.52;1362687;90;21162;-85
2021/09/16 08:02:03;;;;;;;28.77;6.62;;;;;;;24.56;52.21;100270.40;1362243;91;21162;-85
2021/09/16 08:04:30;;;;;;;11.85;6.03;;;;;;;24.67;51.43;100268.70;1342282;92;21318;-84
2021/09/16 08:06:58;;;;;;;9.43;4.62;;;;;;;24.76;50.58;100268.04;1348903;92;22242;-85
2021/09/16 08:09:32;;;;;;;14.95;5.22;;;;;;;24.81;46.82;100271.91;1362424;90;21266;-86
2021/09/16 08:11:59;;;;;;;13.25;4.70;;;;;;;24.90;49.26;100269.90;1381598;89;21264;-85
2021/09/16 08:14:26;;;;;;;11.45;4.67;;;;;;;24.88;48.73;100266.61;1362719;90;21649;-85
2021/09/16 08:17:04;;;;;;;11.22;6.25;;;;;;;24.96;48.76;100272.16;1355905;91;22285;-84
2021/09/16 08:19:31;;;;;;;10.60;5.40;;;;;;;25.07;48.64;100266.38;1350734;91;21280;-85
2021/09/16 08:21:59;;;;;;;9.43;5.47;;;;;;;25.17;48.55;100281.44;1327264;93;21454;-85
2021/09/16 08:24:26;;;;;;;8.88;6.00;;;;;;;25.29;48.44;100272.70;1355653;91;21402;-85
2021/09/16 08:26:53;;;;;;;13.78;5.30;;;;;;;25.39;47.75;100274.19;1366720;89;22279;-85
2021/09/16 08:29:20;;;;;;;16.25;5.62;;;;;;;25.49;48.05;100274.89;1356090;91;21355;-85
2021/09/16 08:31:47;;;;;;;18.92;5.45;;;;;;;25.54;47.34;100270.05;1355249;91;21318;-85
2021/09/16 08:34:14;;;;;;;7.87;5.37;;;;;;;25.59;48.07;100272.30;1367464;89;21468;-85
2021/09/16 08:36:42;;;;;;;33.92;5.75;;;;;;;25.70;46.96;100269.73;1355423;91;21546;-84
2021/09/16 08:39:09;;;;;;;8.68;4.87;;;;;;;25.79;45.95;100262.80;1367002;90;21465;-84
2021/09/16 08:41:37;;;;;;;6.25;4.12;;;;;;;25.80;44.56;100267.14;1342701;92;21468;-85
2021/09/16 08:44:05;;;;;;;7.62;4.80;;;;;;;25.84;44.02;100261.55;1367528;90;21373;-84
2021/09/16 08:46:32;;;;;;;11.85;4.80;;;;;;;25.86;43.74;100266.16;1355802;91;21485;-85
2021/09/16 08:48:59;;;;;;;9.93;4.85;;;;;;;25.88;44.07;100265.38;1367318;90;21392;-85
2021/09/16 08:51:27;;;;;;;17.40;5.00;;;;;;;25.95;43.92;100257.04;1342840;92;22182;-84
2021/09/16 08:53:58;;;;;;;17.12;5.37;;;;;;;26.00;43.53;100263.34;1366708;90;21842;-84
2021/09/16 08:56:27;;;;;;;6.10;4.08;;;;;;;26.04;43.39;100263.13;1341107;93;21325;-84
2021/09/16 08:59:03;;;;;;;21.00;5.50;;;;;;;25.95;42.62;100260.59;1355148;91;21354;-84
2021/09/16 09:01:30;;;;;;;25.60;5.37;;;;;;;25.88;42.04;100269.44;1366958;90;22321;-84
2021/09/16 09:03:58;;;;;;;5.67;4.97;;;;;;;25.95;43.15;100266.53;1355300;91;21361;-84
2021/09/16 09:06:39;;;;;;;35.65;7.83;;;;;;;25.98;43.13;100261.45;1367380;90;21405;-85
2021/09/16 09:09:20;;;;;;;14.68;5.75;;;;;;;26.00;42.48;100263.34;1310100;96;22432;-84
2021/09/16 09:12:16;;;;;;;13.48;5.50;;;;;;;26.10;43.07;100267.54;1342090;92;21296;-84
2021/09/16 09:14:50;;;;;;;14.10;4.97;;;;;;;26.12;42.84;100269.98;1354358;91;21421;-84
2021/09/16 09:17:24;;;;;;;19.25;5.17;;;;;;;26.16;43.04;100263.53;1368691;90;21598;-84
2021/09/16 09:19:55;;;;;;;12.05;5.08;;;;;;;26.14;43.11;100265.13;1357605;91;22285;-84
2021/09/16 09:22:35;;;;;;;14.07;5.80;;;;;;;26.09;42.62;100259.64;1362394;90;22093;-84
2021/09/16 09:25:13;;;;;;;17.67;4.97;;;;;;;26.10;43.04;100260.76;1382509;89;21323;-81
2021/09/16 09:27:50;;;;;;;20.97;5.17;;;;;;;26.13;42.71;100258.63;1363042;90;21338;-84
2021/09/16 09:30:27;;;;;;;23.85;4.87;;;;;;;26.05;42.41;100253.92;1382452;89;21416;-84
2021/09/16 09:33:10;;;;;;;11.83;4.75;;;;;;;26.08;43.05;100253.41;1382082;89;21338;-84
2021/09/16 09:35:44;;;;;;;15.18;4.60;;;;;;;26.02;42.71;100251.72;1357742;90;21461;-84
2021/09/16 09:38:17;;;;;;;21.33;5.65;;;;;;;25.95;42.74;100256.53;1360410;92;21328;-85
2021/09/16 09:40:49;;;;;;;34.05;5.40;;;;;;;25.91;43.10;100249.14;1328447;92;21244;-84
2021/09/16 09:43:30;;;;;;;10.70;4.62;;;;;;;25.84;43.10;100250.70;1357355;91;21359;-84
2021/09/16 09:46:11;;;;;;;13.38;4.95;;;;;;;25.87;43.50;100251.55;1346992;93;21411;-84
2021/09/16 09:49:06;;;;;;;18.40;4.87;;;;;;;25.88;43.72;100255.89;1358670;91;22363;-84
2021/09/16 09:51:41;;;;;;;13.20;5.58;;;;;;;25.94;43.73;100255.41;1337724;93;21298;-85
2021/09/16 09:54:32;;;;;;;11.75;4.62;;;;;;;25.95;43.94;100266.53;1368854;90;21387;-84
2021/09/16 09:57:10;;;;;;;26.77;6.17;;;;;;;25.95;43.71;100267.88;1376457;89;21432;-85
2021/09/16 10:00:11;;;;;;;14.68;5.03;;;;;;;25.88;43.14;100269.44;1369650;91;21321;-84
2021/09/16 10:02:53;;;;;;;18.12;5.08;;;;;;;25.79;42.87;100268.22;1376566;89;22223;-85
2021/09/16 10:05:28;;;;;;;21.40;5.47;;;;;;;25.69;42.98;100258.05;1363070;91;22664;-85
2021/09/16 10:08:14;;;;;;;20.12;4.75;;;;;;;25.61;43.26;100256.62;1356988;91;21382;-85
2021/09/16 10:10:51;;;;;;;13.00;4.70;;;;;;;25.54;43.98;100258.67;1375248;89;21291;-85
2021/09/16 10:13:19;;;;;;;13.20;4.53;;;;;;;25.44;43.89;100254.49;1376266;89;22156;-85
2021/09/16 10:16:03;;;;;;;15.18;4.47;;;;;;;25.33;44.22;100257.58;1355270;90;21338;-85
2021/09/16 10:18:26;;;;;;;37.60;11.83;;;;;;;25.19;44.86;100252.23;1404169;87;21355;-85
2021/09/16 10:20:55;;;;;;;30.72;11.53;;;;;;;25.10;46.10;100259.11;1402606;87;22111;-85
2021/09/16 10:23:24;;;;;;;19.12;8.85;;;;;;;25.05;46.88;100253.07;1402803;87;21265;-85
2021/09/16 10:25:51;;;;;;;15.33;8.27;;;;;;;24.99;46.96;100252.70;1373719;89;21471;-85
2021/09/16 10:28:19;;;;;;;22.13;11.15;;;;;;;24.98;46.92;100252.44;1401972;87;21177;-85
2021/09/16 10:30:48;;;;;;;27.37;15.98;;;;;;;24.99;46.96;100252.17;1403137;87;21443;-85
2021/09/16 10:33:28;;;;;;;12.35;5.53;;;;;;;25.03;47.35;100249.81;1402534;87;22675;-84
2021/09/16 10:36:08;;;;;;;13.32;4.42;;;;;;;25.15;47.66;100249.20;1400061;88;21346;-84
2021/09/16 10:38:45;;;;;;;10.35;4.70;;;;;;;25.31;47.64;100246.17;1403399;87;21420;-84
2021/09/16 10:41:29;;;;;;;8.60;4.78;;;;;;;25.48;47.55;100254.27;1402806;87;21974;-84
2021/09/16 10:44:08;;;;;;;9.08;4.35;;;;;;;25.63;47.24;100251.75;1402753;87;21280;-84
2021/09/16 10:46:43;;;;;;;20.35;5.20;;;;;;;25.69;46.99;100245.04;1402764;87;22225;-84
2021/09/16 10:49:29;;;;;;;5.25;4.17;;;;;;;25.76;47.01;100240.27;1402303;87;21361;-84
2021/09/16 10:52:14;;;;;;;9.25;4.62;;;;;;;25.74;47.06;100235.62;1402734;87;21399;-84
2021/09/16 10:54:56;;;;;;;13.68;5.30;;;;;;;25.71;47.60;100236.13;1392032;87;21435;-84
2021/09/16 10:57:36;;;;;;;11.78;4.95;;;;;;;25.66;47.74;100229.59;1402620;87;22308;-84
2021/09/16 11:00:11;;;;;;;10.35;4.28;;;;;;;25.64;47.66;100229.02;1404877;87;21353;-84
